sensor_id;sensor_type;location;lat;lon;timestamp;pressure;altitude;pressure_sealevel;temperature;humidity
50292;BME280;36190;54.980;73.388;2023-02-28T00:00:38;100220.19;;;-2.91;83.52
50292;BME280;36190;54.980;73.388;2023-02-28T00:03:05;100218.09;;;-2.84;83.54
50292;BME280;36190;54.980;73.388;2023-02-28T00:05:33;100219.75;;;-2.83;83.48
50292;BME280;36190;54.980;73.388;2023-02-28T00:08:01;100210.09;;;-2.81;83.57
50292;BME280;36190;54.980;73.388;2023-02-28T00:10:31;100213.28;;;-2.76;83.56
50292;BME280;36190;54.980;73.388;2023-02-28T00:13:00;100196.25;;;-2.83;83.69
50292;BME280;36190;54.980;73.388;2023-02-28T00:15:28;100227.09;;;-2.73;83.45
50292;BME280;36190;54.980;73.388;2023-02-28T00:17:56;100212.25;;;-2.73;83.35
50292;BME280;36190;54.980;73.388;2023-02-28T00:20:24;100202.81;;;-2.76;83.24
50292;BME280;36190;54.980;73.388;2023-02-28T00:22:53;100210.00;;;-2.79;83.28
50292;BME280;36190;54.980;73.388;2023-02-28T00:25:22;100231.13;;;-2.84;83.52
50292;BME280;36190;54.980;73.388;2023-02-28T00:27:52;100205.88;;;-2.83;83.33
50292;BME280;36190;54.980;73.388;2023-02-28T00:30:21;100198.13;;;-2.85;83.26
50292;BME280;36190;54.980;73.388;2023-02-28T00:32:49;100197.03;;;-2.81;83.49
50292;BME280;36190;54.980;73.388;2023-02-28T00:35:17;100205.53;;;-2.77;83.30
50292;BME280;36190;54.980;73.388;2023-02-28T00:37:45;100195.75;;;-2.73;83.29
50292;BME280;36190;54.980;73.388;2023-02-28T00:40:12;100192.28;;;-2.74;83.25
50292;BME280;36190;54.980;73.388;2023-02-28T00:42:40;100200.13;;;-2.74;83.39
50292;BME280;36190;54.980;73.388;2023-02-28T00:45:09;100212.44;;;-2.76;83.41
50292;BME280;36190;54.980;73.388;2023-02-28T00:47:37;100205.44;;;-2.76;83.27
50292;BME280;36190;54.980;73.388;2023-02-28T00:50:05;100175.09;;;-2.78;83.39
50292;BME280;36190;54.980;73.388;2023-02-28T00:52:34;100170.72;;;-2.78;83.39
50292;BME280;36190;54.980;73.388;2023-02-28T00:55:01;100166.53;;;-2.80;83.36
50292;BME280;36190;54.980;73.388;2023-02-28T00:57:29;100189.00;;;-2.78;83.38
50292;BME280;36190;54.980;73.388;2023-02-28T00:59:56;100157.88;;;-2.81;83.43
50292;BME280;36190;54.980;73.388;2023-02-28T01:02:25;100147.41;;;-2.81;83.47
50292;BME280;36190;54.980;73.388;2023-02-28T01:04:53;100162.91;;;-2.78;83.47
50292;BME280;36190;54.980;73.388;2023-02-28T01:07:20;100153.31;;;-2.77;83.47
50292;BME280;36190;54.980;73.388;2023-02-28T01:09:48;100141.16;;;-2.78;83.21
50292;BME280;36190;54.980;73.388;2023-02-28T01:12:16;100145.75;;;-2.82;83.38
50292;BME280;36190;54.980;73.388;2023-02-28T01:14:43;100165.59;;;-2.79;83.41
50292;BME280;36190;54.980;73.388;2023-02-28T01:17:11;100139.22;;;-2.74;83.32
50292;BME280;36190;54.980;73.388;2023-02-28T01:19:40;100145.22;;;-2.72;83.19
50292;BME280;36190;54.980;73.388;2023-02-28T01:22:07;100141.66;;;-2.71;83.29
50292;BME280;36190;54.980;73.388;2023-02-28T01:24:35;100126.94;;;-2.72;83.14
50292;BME280;36190;54.980;73.388;2023-02-28T01:27:02;100136.44;;;-2.71;83.08
50292;BME280;36190;54.980;73.388;2023-02-28T01:29:30;100123.19;;;-2.68;83.24
50292;BME280;36190;54.980;73.388;2023-02-28T01:31:57;100120.56;;;-2.68;83.04
50292;BME280;36190;54.980;73.388;2023-02-28T01:34:26;100130.00;;;-2.66;83.13
50292;BME280;36190;54.980;73.388;2023-02-28T01:36:55;100117.97;;;-2.68;82.80
50292;BME280;36190;54.980;73.388;2023-02-28T01:39:24;100117.97;;;-2.68;82.97
50292;BME280;36190;54.980;73.388;2023-02-28T01:41:52;100123.28;;;-2.70;82.79
50292;BME280;36190;54.980;73.388;2023-02-28T01:47:25;100112.06;;;-2.72;82.87
50292;BME280;36190;54.980;73.388;2023-02-28T01:49:54;100112.00;;;-2.70;82.72
50292;BME280;36190;54.980;73.388;2023-02-28T01:52:23;100106.69;;;-2.69;82.64
50292;BME280;36190;54.980;73.388;2023-02-28T01:54:52;100103.88;;;-2.66;82.79
50292;BME280;36190;54.980;73.388;2023-02-28T01:57:23;100079.38;;;-2.63;82.43
50292;BME280;36190;54.980;73.388;2023-02-28T01:59:55;100060.13;;;-2.77;82.41
50292;BME280;36190;54.980;73.388;2023-02-28T02:02:26;100095.03;;;-2.63;82.38
50292;BME280;36190;54.980;73.388;2023-02-28T02:04:57;100071.69;;;-2.66;82.19
50292;BME280;36190;54.980;73.388;2023-02-28T02:07:29;100087.00;;;-2.60;82.14
50292;BME280;36190;54.980;73.388;2023-02-28T02:10:04;100091.28;;;-2.59;81.93
50292;BME280;36190;54.980;73.388;2023-02-28T02:12:45;100071.34;;;-2.60;81.88
50292;BME280;36190;54.980;73.388;2023-02-28T02:15:22;100076.41;;;-2.57;81.94
50292;BME280;36190;54.980;73.388;2023-02-28T02:17:53;100073.59;;;-2.54;81.82
50292;BME280;36190;54.980;73.388;2023-02-28T02:20:59;100064.72;;;-2.51;81.67
50292;BME280;36190;54.980;73.388;2023-02-28T02:23:55;100060.34;;;-2.51;81.48
50292;BME280;36190;54.980;73.388;2023-02-28T02:26:55;100060.34;;;-2.51;81.56
50292;BME280;36190;54.980;73.388;2023-02-28T02:33:03;100055.09;;;-2.51;81.46
50292;BME280;36190;54.980;73.388;2023-02-28T02:35:40;100051.75;;;-2.53;81.26
50292;BME280;36190;54.980;73.388;2023-02-28T02:38:17;100059.59;;;-2.53;81.54
50292;BME280;36190;54.980;73.388;2023-02-28T02:40:52;100059.41;;;-2.50;81.54
50292;BME280;36190;54.980;73.388;2023-02-28T02:43:26;100042.81;;;-2.49;81.35
50292;BME280;36190;54.980;73.388;2023-02-28T02:46:01;100035.72;;;-2.46;81.22
50292;BME280;36190;54.980;73.388;2023-02-28T02:48:34;100045.97;;;-2.43;81.19
50292;BME280;36190;54.980;73.388;2023-02-28T02:51:07;100032.44;;;-2.50;80.94
50292;BME280;36190;54.980;73.388;2023-02-28T02:53:42;100031.03;;;-2.41;80.96
50292;BME280;36190;54.980;73.388;2023-02-28T02:56:12;100015.19;;;-2.53;80.89
50292;BME280;36190;54.980;73.388;2023-02-28T02:58:42;100023.66;;;-2.49;80.97
50292;BME280;36190;54.980;73.388;2023-02-28T03:01:14;100035.34;;;-2.40;80.83
50292;BME280;36190;54.980;73.388;2023-02-28T03:03:43;100015.47;;;-2.43;81.01
50292;BME280;36190;54.980;73.388;2023-02-28T03:06:15;100023.38;;;-2.44;80.81
50292;BME280;36190;54.980;73.388;2023-02-28T03:08:42;100015.91;;;-2.51;80.84
50292;BME280;36190;54.980;73.388;2023-02-28T03:11:13;100015.38;;;-2.56;80.95
50292;BME280;36190;54.980;73.388;2023-02-28T03:19:46;100013.78;;;-2.58;81.04
50292;BME280;36190;54.980;73.388;2023-02-28T03:22:25;100018.16;;;-2.59;81.02
50292;BME280;36190;54.980;73.388;2023-02-28T03:24:57;100014.22;;;-2.66;80.99
50292;BME280;36190;54.980;73.388;2023-02-28T03:27:29;100014.81;;;-2.61;80.92
50292;BME280;36190;54.980;73.388;2023-02-28T03:30:01;100012.56;;;-2.67;80.99
50292;BME280;36190;54.980;73.388;2023-02-28T03:32:34;100003.69;;;-2.79;80.88
50292;BME280;36190;54.980;73.388;2023-02-28T03:35:09;99992.22;;;-2.77;80.91
50292;BME280;36190;54.980;73.388;2023-02-28T03:37:42;100001.19;;;-2.81;81.11
50292;BME280;36190;54.980;73.388;2023-02-28T03:40:14;99989.06;;;-2.82;81.19
50292;BME280;36190;54.980;73.388;2023-02-28T03:42:45;99989.06;;;-2.82;81.44
50292;BME280;36190;54.980;73.388;2023-02-28T03:45:17;99993.50;;;-2.84;81.34
50292;BME280;36190;54.980;73.388;2023-02-28T03:47:51;99980.47;;;-2.84;81.47
50292;BME280;36190;54.980;73.388;2023-02-28T03:50:22;99981.31;;;-2.83;81.53
50292;BME280;36190;54.980;73.388;2023-02-28T03:52:57;99978.41;;;-2.79;81.65
50292;BME280;36190;54.980;73.388;2023-02-28T03:55:28;99942.22;;;-2.85;81.74
50292;BME280;36190;54.980;73.388;2023-02-28T03:58:01;99975.44;;;-2.72;81.43
50292;BME280;36190;54.980;73.388;2023-02-28T04:00:35;99957.69;;;-2.67;81.71
50292;BME280;36190;54.980;73.388;2023-02-28T04:03:03;99964.16;;;-2.58;81.77
50292;BME280;36190;54.980;73.388;2023-02-28T04:05:31;99948.41;;;-2.57;81.63
50292;BME280;36190;54.980;73.388;2023-02-28T04:08:06;99953.22;;;-2.36;81.49
50292;BME280;36190;54.980;73.388;2023-02-28T04:10:34;99953.56;;;-2.28;81.34
50292;BME280;36190;54.980;73.388;2023-02-28T04:13:01;99962.91;;;-2.24;81.18
50292;BME280;36190;54.980;73.388;2023-02-28T04:15:28;99949.72;;;-2.22;81.08
50292;BME280;36190;54.980;73.388;2023-02-28T04:17:57;99949.63;;;-2.21;81.15
50292;BME280;36190;54.980;73.388;2023-02-28T04:20:25;99950.19;;;-2.15;80.92
50292;BME280;36190;54.980;73.388;2023-02-28T04:22:52;99950.84;;;-2.12;80.86
50292;BME280;36190;54.980;73.388;2023-02-28T04:25:21;99939.53;;;-2.12;80.87
50292;BME280;36190;54.980;73.388;2023-02-28T04:27:49;99941.22;;;-2.11;80.59
50292;BME280;36190;54.980;73.388;2023-02-28T04:30:16;99931.25;;;-2.19;80.77
50292;BME280;36190;54.980;73.388;2023-02-28T04:32:44;99943.00;;;-2.12;80.74
50292;BME280;36190;54.980;73.388;2023-02-28T04:35:11;99940.56;;;-2.15;80.77
50292;BME280;36190;54.980;73.388;2023-02-28T04:37:39;99930.97;;;-2.14;80.65
50292;BME280;36190;54.980;73.388;2023-02-28T04:40:08;99937.00;;;-2.14;80.92
50292;BME280;36190;54.980;73.388;2023-02-28T04:42:37;99932.25;;;-2.07;80.85
50292;BME280;36190;54.980;73.388;2023-02-28T04:45:05;99938.00;;;-2.02;80.76
50292;BME280;36190;54.980;73.388;2023-02-28T04:47:35;99922.88;;;-1.97;80.71
50292;BME280;36190;54.980;73.388;2023-02-28T04:50:04;99928.66;;;-1.91;80.55
50292;BME280;36190;54.980;73.388;2023-02-28T04:52:31;99903.03;;;-1.86;80.65
50292;BME280;36190;54.980;73.388;2023-02-28T04:54:59;99901.91;;;-1.82;80.49
50292;BME280;36190;54.980;73.388;2023-02-28T04:57:26;99915.59;;;-1.78;80.23
50292;BME280;36190;54.980;73.388;2023-02-28T04:59:55;99911.19;;;-1.78;80.25
50292;BME280;36190;54.980;73.388;2023-02-28T05:02:22;99910.38;;;-1.78;80.18
50292;BME280;36190;54.980;73.388;2023-02-28T05:04:50;99912.16;;;-1.79;80.17
50292;BME280;36190;54.980;73.388;2023-02-28T05:07:17;99892.72;;;-1.75;79.99
50292;BME280;36190;54.980;73.388;2023-02-28T05:09:45;99911.53;;;-1.70;79.95
50292;BME280;36190;54.980;73.388;2023-02-28T05:12:14;99904.63;;;-1.71;79.87
50292;BME280;36190;54.980;73.388;2023-02-28T05:14:41;99909.13;;;-1.73;79.91
50292;BME280;36190;54.980;73.388;2023-02-28T05:17:11;99902.88;;;-1.70;79.87
50292;BME280;36190;54.980;73.388;2023-02-28T05:19:38;99892.41;;;-1.70;79.91
50292;BME280;36190;54.980;73.388;2023-02-28T05:22:13;99875.75;;;-1.69;80.08
50292;BME280;36190;54.980;73.388;2023-02-28T05:24:40;99866.97;;;-1.68;79.98
50292;BME280;36190;54.980;73.388;2023-02-28T05:27:08;99878.91;;;-1.64;79.93
50292;BME280;36190;54.980;73.388;2023-02-28T05:29:36;99878.81;;;-1.62;79.79
50292;BME280;36190;54.980;73.388;2023-02-28T05:32:08;99868.34;;;-1.62;79.74
50292;BME280;36190;54.980;73.388;2023-02-28T05:34:38;99852.84;;;-1.66;79.52
50292;BME280;36190;54.980;73.388;2023-02-28T05:37:06;99858.28;;;-1.69;79.69
50292;BME280;36190;54.980;73.388;2023-02-28T05:39:34;99858.50;;;-1.72;79.79
50292;BME280;36190;54.980;73.388;2023-02-28T05:42:01;99845.31;;;-1.70;79.78
50292;BME280;36190;54.980;73.388;2023-02-28T05:44:29;99855.66;;;-1.69;79.75
50292;BME280;36190;54.980;73.388;2023-02-28T05:46:56;99840.72;;;-1.67;79.80
50292;BME280;36190;54.980;73.388;2023-02-28T05:49:24;99844.78;;;-1.62;79.71
50292;BME280;36190;54.980;73.388;2023-02-28T05:51:53;99838.19;;;-1.68;79.45
50292;BME280;36190;54.980;73.388;2023-02-28T05:54:20;99832.66;;;-1.63;79.77
50292;BME280;36190;54.980;73.388;2023-02-28T05:56:48;99835.59;;;-1.55;79.56
50292;BME280;36190;54.980;73.388;2023-02-28T05:59:15;99812.91;;;-1.55;79.37
50292;BME280;36190;54.980;73.388;2023-02-28T06:01:44;99810.28;;;-1.55;79.17
50292;BME280;36190;54.980;73.388;2023-02-28T06:04:15;99779.16;;;-1.72;79.34
50292;BME280;36190;54.980;73.388;2023-02-28T06:06:44;99811.81;;;-1.52;79.25
50292;BME280;36190;54.980;73.388;2023-02-28T06:09:14;99817.69;;;-1.48;79.17
50292;BME280;36190;54.980;73.388;2023-02-28T06:11:41;99791.75;;;-1.52;79.06
50292;BME280;36190;54.980;73.388;2023-02-28T06:14:14;99795.09;;;-1.49;79.10
50292;BME280;36190;54.980;73.388;2023-02-28T06:16:41;99795.81;;;-1.47;78.97
50292;BME280;36190;54.980;73.388;2023-02-28T06:19:09;99785.25;;;-1.46;79.05
50292;BME280;36190;54.980;73.388;2023-02-28T06:21:37;99779.69;;;-1.41;79.05
50292;BME280;36190;54.980;73.388;2023-02-28T06:24:05;99775.81;;;-1.35;79.30
50292;BME280;36190;54.980;73.388;2023-02-28T06:26:34;99767.44;;;-1.28;79.02
50292;BME280;36190;54.980;73.388;2023-02-28T06:29:01;99773.78;;;-1.19;79.10
50292;BME280;36190;54.980;73.388;2023-02-28T06:31:29;99772.41;;;-1.12;78.91
50292;BME280;36190;54.980;73.388;2023-02-28T06:33:57;99769.47;;;-1.07;78.85
50292;BME280;36190;54.980;73.388;2023-02-28T06:36:24;99767.47;;;-1.03;78.51
50292;BME280;36190;54.980;73.388;2023-02-28T06:38:52;99749.16;;;-1.03;78.56
50292;BME280;36190;54.980;73.388;2023-02-28T06:41:22;99749.16;;;-1.03;78.46
50292;BME280;36190;54.980;73.388;2023-02-28T06:43:51;99763.59;;;-0.98;78.51
50292;BME280;36190;54.980;73.388;2023-02-28T06:46:19;99756.66;;;-0.99;78.34
50292;BME280;36190;54.980;73.388;2023-02-28T06:48:46;99753.44;;;-1.02;78.25
50292;BME280;36190;54.980;73.388;2023-02-28T06:51:15;99754.38;;;-1.03;78.33
50292;BME280;36190;54.980;73.388;2023-02-28T06:53:43;99741.28;;;-1.03;78.22
50292;BME280;36190;54.980;73.388;2023-02-28T06:56:12;99743.09;;;-1.04;78.19
50292;BME280;36190;54.980;73.388;2023-02-28T06:58:41;99733.22;;;-1.00;78.39
50292;BME280;36190;54.980;73.388;2023-02-28T07:01:11;99729.44;;;-0.96;78.15
50292;BME280;36190;54.980;73.388;2023-02-28T07:03:40;99722.31;;;-0.94;77.88
50292;BME280;36190;54.980;73.388;2023-02-28T07:06:08;99721.88;;;-0.88;78.11
50292;BME280;36190;54.980;73.388;2023-02-28T07:08:35;99716.63;;;-0.88;77.85
50292;BME280;36190;54.980;73.388;2023-02-28T07:11:03;99722.09;;;-0.91;77.60
50292;BME280;36190;54.980;73.388;2023-02-28T07:13:31;99725.66;;;-0.92;77.61
50292;BME280;36190;54.980;73.388;2023-02-28T07:16:00;99703.25;;;-0.96;77.64
50292;BME280;36190;54.980;73.388;2023-02-28T07:18:29;99713.34;;;-1.03;77.75
50292;BME280;36190;54.980;73.388;2023-02-28T07:20:57;99711.25;;;-1.11;77.77
50292;BME280;36190;54.980;73.388;2023-02-28T07:23:24;99712.94;;;-1.09;77.81
50292;BME280;36190;54.980;73.388;2023-02-28T07:25:52;99686.63;;;-1.08;77.79
50292;BME280;36190;54.980;73.388;2023-02-28T07:28:19;99684.63;;;-1.04;77.96
50292;BME280;36190;54.980;73.388;2023-02-28T07:30:47;99685.16;;;-0.99;77.83
50292;BME280;36190;54.980;73.388;2023-02-28T07:33:14;99701.56;;;-0.97;77.66
50292;BME280;36190;54.980;73.388;2023-02-28T07:35:43;99677.28;;;-0.99;77.58
50292;BME280;36190;54.980;73.388;2023-02-28T07:38:11;99687.53;;;-0.96;77.52
50292;BME280;36190;54.980;73.388;2023-02-28T07:40:39;99687.16;;;-1.03;77.23
50292;BME280;36190;54.980;73.388;2023-02-28T07:43:07;99686.75;;;-1.09;77.65
50292;BME280;36190;54.980;73.388;2023-02-28T07:45:34;99685.53;;;-1.17;77.51
50292;BME280;36190;54.980;73.388;2023-02-28T07:48:02;99675.81;;;-1.28;77.62
50292;BME280;36190;54.980;73.388;2023-02-28T07:50:30;99659.59;;;-1.33;77.93
50292;BME280;36190;54.980;73.388;2023-02-28T07:52:59;99678.81;;;-1.21;77.96
50292;BME280;36190;54.980;73.388;2023-02-28T07:55:26;99673.59;;;-1.21;78.08
50292;BME280;36190;54.980;73.388;2023-02-28T07:57:54;99656.22;;;-1.22;77.92
50292;BME280;36190;54.980;73.388;2023-02-28T08:00:22;99653.50;;;-1.20;78.01
50292;BME280;36190;54.980;73.388;2023-02-28T08:02:50;99667.41;;;-1.20;77.83
50292;BME280;36190;54.980;73.388;2023-02-28T08:05:18;99652.66;;;-1.21;78.06
50292;BME280;36190;54.980;73.388;2023-02-28T08:07:45;99648.13;;;-1.19;77.85
50292;BME280;36190;54.980;73.388;2023-02-28T08:10:15;99671.91;;;-1.22;78.02
50292;BME280;36190;54.980;73.388;2023-02-28T08:12:42;99644.19;;;-1.25;78.12
50292;BME280;36190;54.980;73.388;2023-02-28T08:15:10;99638.56;;;-1.31;78.04
50292;BME280;36190;54.980;73.388;2023-02-28T08:17:38;99641.19;;;-1.31;78.49
50292;BME280;36190;54.980;73.388;2023-02-28T08:20:06;99623.56;;;-1.29;78.50
50292;BME280;36190;54.980;73.388;2023-02-28T08:22:34;99626.47;;;-1.21;78.74
50292;BME280;36190;54.980;73.388;2023-02-28T08:25:02;99612.72;;;-1.12;78.59
50292;BME280;36190;54.980;73.388;2023-02-28T08:27:31;99615.72;;;-1.05;78.49
50292;BME280;36190;54.980;73.388;2023-02-28T08:29:58;99623.47;;;-1.03;78.36
50292;BME280;36190;54.980;73.388;2023-02-28T08:32:26;99612.97;;;-1.03;78.26
50292;BME280;36190;54.980;73.388;2023-02-28T08:34:53;99618.22;;;-1.03;78.41
50292;BME280;36190;54.980;73.388;2023-02-28T08:37:21;99613.22;;;-1.06;78.43
50292;BME280;36190;54.980;73.388;2023-02-28T08:39:48;99629.16;;;-1.09;78.57
50292;BME280;36190;54.980;73.388;2023-02-28T08:42:16;99612.09;;;-1.15;78.50
50292;BME280;36190;54.980;73.388;2023-02-28T08:44:45;99603.53;;;-1.17;78.64
50292;BME280;36190;54.980;73.388;2023-02-28T08:47:12;99617.22;;;-1.14;78.78
50292;BME280;36190;54.980;73.388;2023-02-28T08:49:40;99614.38;;;-1.11;78.80
50292;BME280;36190;54.980;73.388;2023-02-28T08:52:07;99596.28;;;-1.14;78.76
50292;BME280;36190;54.980;73.388;2023-02-28T08:54:35;99597.22;;;-1.15;78.77
50292;BME280;36190;54.980;73.388;2023-02-28T08:57:03;99594.63;;;-1.15;78.88
50292;BME280;36190;54.980;73.388;2023-02-28T08:59:30;99591.66;;;-1.10;79.12
50292;BME280;36190;54.980;73.388;2023-02-28T09:01:59;99590.16;;;-1.01;79.08
50292;BME280;36190;54.980;73.388;2023-02-28T09:04:27;99593.03;;;-0.93;78.98
50292;BME280;36190;54.980;73.388;2023-02-28T09:06:56;99591.25;;;-0.92;78.94
50292;BME280;36190;54.980;73.388;2023-02-28T09:09:23;99571.84;;;-0.90;78.91
50292;BME280;36190;54.980;73.388;2023-02-28T09:11:51;99578.41;;;-0.84;78.90
50292;BME280;36190;54.980;73.388;2023-02-28T09:14:19;99573.06;;;-0.82;79.12
50292;BME280;36190;54.980;73.388;2023-02-28T09:16:46;99579.72;;;-0.78;79.06
50292;BME280;36190;54.980;73.388;2023-02-28T09:19:15;99564.25;;;-0.81;78.92
50292;BME280;36190;54.980;73.388;2023-02-28T09:21:42;99574.97;;;-0.85;79.12
50292;BME280;36190;54.980;73.388;2023-02-28T09:24:10;99562.44;;;-0.92;79.20
50292;BME280;36190;54.980;73.388;2023-02-28T09:26:40;99563.50;;;-0.95;79.44
50292;BME280;36190;54.980;73.388;2023-02-28T09:29:08;99565.66;;;-0.89;79.50
50292;BME280;36190;54.980;73.388;2023-02-28T09:31:36;99569.22;;;-0.90;79.55
50292;BME280;36190;54.980;73.388;2023-02-28T09:34:04;99563.91;;;-0.88;79.84
50292;BME280;36190;54.980;73.388;2023-02-28T09:36:33;99555.19;;;-0.89;79.77
50292;BME280;36190;54.980;73.388;2023-02-28T09:39:01;99554.97;;;-0.86;79.67
50292;BME280;36190;54.980;73.388;2023-02-28T09:41:36;99539.03;;;-0.82;79.92
50292;BME280;36190;54.980;73.388;2023-02-28T09:44:07;99541.19;;;-0.76;79.89
50292;BME280;36190;54.980;73.388;2023-02-28T09:46:38;99539.88;;;-0.71;79.94
50292;BME280;36190;54.980;73.388;2023-02-28T09:49:12;99534.53;;;-0.69;79.63
50292;BME280;36190;54.980;73.388;2023-02-28T09:51:49;99535.25;;;-0.67;79.76
50292;BME280;36190;54.980;73.388;2023-02-28T09:54:19;99515.69;;;-0.74;79.60
50292;BME280;36190;54.980;73.388;2023-02-28T09:56:50;99517.59;;;-0.65;79.76
50292;BME280;36190;54.980;73.388;2023-02-28T09:59:36;99533.56;;;-0.57;79.97
50292;BME280;36190;54.980;73.388;2023-02-28T10:02:17;99508.94;;;-0.54;80.01
50292;BME280;36190;54.980;73.388;2023-02-28T10:04:50;99517.28;;;-0.49;79.67
50292;BME280;36190;54.980;73.388;2023-02-28T10:07:35;99510.72;;;-0.43;79.85
50292;BME280;36190;54.980;73.388;2023-02-28T10:10:10;99511.19;;;-0.49;79.63
50292;BME280;36190;54.980;73.388;2023-02-28T10:12:44;99509.75;;;-0.53;79.80
50292;BME280;36190;54.980;73.388;2023-02-28T10:15:14;99496.66;;;-0.53;79.85
50292;BME280;36190;54.980;73.388;2023-02-28T10:17:45;99498.56;;;-0.56;80.23
50292;BME280;36190;54.980;73.388;2023-02-28T10:20:19;99501.88;;;-0.53;80.25
50292;BME280;36190;54.980;73.388;2023-02-28T10:22:56;99497.84;;;-0.46;80.63
50292;BME280;36190;54.980;73.388;2023-02-28T10:25:27;99498.31;;;-0.41;80.73
50292;BME280;36190;54.980;73.388;2023-02-28T10:27:59;99499.75;;;-0.37;80.50
50292;BME280;36190;54.980;73.388;2023-02-28T10:30:28;99497.84;;;-0.35;80.45
50292;BME280;36190;54.980;73.388;2023-02-28T10:32:55;99492.84;;;-0.38;80.68
50292;BME280;36190;54.980;73.388;2023-02-28T10:35:24;99489.41;;;-0.38;80.92
50292;BME280;36190;54.980;73.388;2023-02-28T10:37:54;99506.69;;;-0.36;81.11
50292;BME280;36190;54.980;73.388;2023-02-28T10:40:29;99492.63;;;-0.35;81.28
50292;BME280;36190;54.980;73.388;2023-02-28T10:42:58;99486.63;;;-0.37;81.21
50292;BME280;36190;54.980;73.388;2023-02-28T10:45:27;99478.56;;;-0.34;81.53
50292;BME280;36190;54.980;73.388;2023-02-28T10:47:57;99483.53;;;-0.31;81.37
50292;BME280;36190;54.980;73.388;2023-02-28T10:50:34;99473.53;;;-0.25;81.62
50292;BME280;36190;54.980;73.388;2023-02-28T10:53:24;99475.09;;;-0.23;81.44
50292;BME280;36190;54.980;73.388;2023-02-28T10:55:59;99488.31;;;-0.24;81.33
50292;BME280;36190;54.980;73.388;2023-02-28T10:58:29;99473.78;;;-0.29;81.55
50292;BME280;36190;54.980;73.388;2023-02-28T11:00:58;99473.78;;;-0.29;81.41
50292;BME280;36190;54.980;73.388;2023-02-28T11:03:32;99492.13;;;-0.29;81.66
50292;BME280;36190;54.980;73.388;2023-02-28T11:06:05;99477.59;;;-0.33;81.76
50292;BME280;36190;54.980;73.388;2023-02-28T11:08:44;99463.03;;;-0.37;81.95
50292;BME280;36190;54.980;73.388;2023-02-28T11:11:12;99470.91;;;-0.37;82.18
50292;BME280;36190;54.980;73.388;2023-02-28T11:13:44;99466.63;;;-0.38;82.09
50292;BME280;36190;54.980;73.388;2023-02-28T11:16:14;99461.63;;;-0.41;82.61
50292;BME280;36190;54.980;73.388;2023-02-28T11:18:46;99456.03;;;-0.48;82.36
50292;BME280;36190;54.980;73.388;2023-02-28T11:21:23;99477.81;;;-0.47;82.82
50292;BME280;36190;54.980;73.388;2023-02-28T11:23:57;99463.41;;;-0.53;83.15
50292;BME280;36190;54.980;73.388;2023-02-28T11:26:42;99465.09;;;-0.52;83.49
50292;BME280;36190;54.980;73.388;2023-02-28T11:29:17;99467.59;;;-0.50;83.32
50292;BME280;36190;54.980;73.388;2023-02-28T11:32:01;99475.56;;;-0.52;83.55
50292;BME280;36190;54.980;73.388;2023-02-28T11:34:30;99455.91;;;-0.58;83.71
50292;BME280;36190;54.980;73.388;2023-02-28T11:37:00;99483.19;;;-0.60;83.72
50292;BME280;36190;54.980;73.388;2023-02-28T11:39:32;99466.75;;;-0.62;83.80
50292;BME280;36190;54.980;73.388;2023-02-28T11:42:22;99451.63;;;-0.70;84.08
50292;BME280;36190;54.980;73.388;2023-02-28T11:45:02;99437.81;;;-0.72;84.10
50292;BME280;36190;54.980;73.388;2023-02-28T11:47:38;99442.44;;;-0.76;84.25
50292;BME280;36190;54.980;73.388;2023-02-28T11:50:34;99451.41;;;-0.67;84.33
50292;BME280;36190;54.980;73.388;2023-02-28T11:53:14;99453.53;;;-0.72;84.45
50292;BME280;36190;54.980;73.388;2023-02-28T11:55:49;99452.34;;;-0.79;84.26
50292;BME280;36190;54.980;73.388;2023-02-28T11:58:33;99445.44;;;-0.80;84.69
50292;BME280;36190;54.980;73.388;2023-02-28T12:01:17;99460.69;;;-0.74;84.83
50292;BME280;36190;54.980;73.388;2023-02-28T12:03:53;99471.97;;;-0.74;84.76
50292;BME280;36190;54.980;73.388;2023-02-28T12:06:28;99468.78;;;-0.77;84.64
50292;BME280;36190;54.980;73.388;2023-02-28T12:09:12;99458.78;;;-0.84;84.79
50292;BME280;36190;54.980;73.388;2023-02-28T12:11:50;99477.09;;;-0.84;84.98
50292;BME280;36190;54.980;73.388;2023-02-28T12:14:30;99483.50;;;-0.88;85.12
50292;BME280;36190;54.980;73.388;2023-02-28T12:17:14;99463.38;;;-0.99;85.39
50292;BME280;36190;54.980;73.388;2023-02-28T12:19:48;99461.72;;;-1.00;85.46
50292;BME280;36190;54.980;73.388;2023-02-28T12:22:28;99467.09;;;-0.90;85.58
50292;BME280;36190;54.980;73.388;2023-02-28T12:28:20;99494.25;;;-0.91;85.75
50292;BME280;36190;54.980;73.388;2023-02-28T12:30:52;99473.28;;;-0.91;85.67
50292;BME280;36190;54.980;73.388;2023-02-28T12:33:24;99480.53;;;-0.94;85.79
50292;BME280;36190;54.980;73.388;2023-02-28T12:35:54;99481.59;;;-0.97;85.73
50292;BME280;36190;54.980;73.388;2023-02-28T12:38:25;99485.41;;;-1.01;85.92
50292;BME280;36190;54.980;73.388;2023-02-28T12:40:56;99466.56;;;-1.18;85.86
50292;BME280;36190;54.980;73.388;2023-02-28T12:43:32;99487.28;;;-1.03;86.25
50292;BME280;36190;54.980;73.388;2023-02-28T12:46:03;99492.53;;;-1.03;86.30
50292;BME280;36190;54.980;73.388;2023-02-28T12:48:40;99500.72;;;-1.08;86.67
50292;BME280;36190;54.980;73.388;2023-02-28T12:51:09;99476.22;;;-1.07;86.41
50292;BME280;36190;54.980;73.388;2023-02-28T12:53:49;99462.88;;;-1.15;86.80
50292;BME280;36190;54.980;73.388;2023-02-28T12:56:21;99476.47;;;-1.10;86.66
50292;BME280;36190;54.980;73.388;2023-02-28T12:58:54;99487.78;;;-1.09;86.70
50292;BME280;36190;54.980;73.388;2023-02-28T13:08:10;99463.72;;;-1.15;86.88
50292;BME280;36190;54.980;73.388;2023-02-28T13:10:43;99485.03;;;-1.08;86.95
50292;BME280;36190;54.980;73.388;2023-02-28T13:13:16;99484.56;;;-1.13;86.92
50292;BME280;36190;54.980;73.388;2023-02-28T13:16:01;99497.06;;;-1.05;86.89
50292;BME280;36190;54.980;73.388;2023-02-28T13:18:32;99481.69;;;-1.10;86.89
50292;BME280;36190;54.980;73.388;2023-02-28T13:21:02;99486.59;;;-1.05;86.98
50292;BME280;36190;54.980;73.388;2023-02-28T13:29:31;99486.47;;;-1.04;86.93
50292;BME280;36190;54.980;73.388;2023-02-28T13:32:29;99486.94;;;-1.10;86.65
50292;BME280;36190;54.980;73.388;2023-02-28T13:38:33;99492.31;;;-1.00;86.54